createdAt,value
2019-02-24T00:00:41.838Z,-1.90
2019-02-24T00:03:24.332Z,-1.90
2019-02-24T00:06:06.275Z,-1.90
2019-02-24T00:08:46.788Z,-1.70
2019-02-24T00:11:36.104Z,-1.60
2019-02-24T00:14:17.886Z,-1.70
2019-02-24T00:16:59.592Z,-1.70
2019-02-24T00:19:42.337Z,-1.70
2019-02-24T00:22:24.872Z,-1.60
2019-02-24T00:25:07.495Z,-1.60
2019-02-24T00:27:51.375Z,-1.50
2019-02-24T00:30:33.741Z,-1.50
2019-02-24T00:33:17.713Z,-1.40
2019-02-24T00:36:00.023Z,-1.20
2019-02-24T00:38:42.312Z,-1.30
2019-02-24T00:41:23.975Z,-1.20
2019-02-24T00:44:04.730Z,-1.00
2019-02-24T00:46:54.036Z,-0.90
2019-02-24T00:49:36.768Z,-0.80
2019-02-24T00:52:18.858Z,-0.70
2019-02-24T00:54:59.519Z,-0.70
2019-02-24T00:57:48.848Z,-0.70
2019-02-24T01:00:30.748Z,-0.70
2019-02-24T01:03:12.929Z,-0.80
2019-02-24T01:05:55.041Z,-0.90
2019-02-24T01:08:37.360Z,-1.10
2019-02-24T01:11:19.621Z,-1.10
2019-02-24T01:14:02.432Z,-0.90
2019-02-24T01:16:45.447Z,-0.90
2019-02-24T01:19:27.764Z,-0.90
2019-02-24T01:22:09.970Z,-0.90
2019-02-24T01:24:52.416Z,-0.90
2019-02-24T01:27:33.154Z,-1.00
2019-02-24T01:30:23.747Z,-1.10
2019-02-24T01:33:06.212Z,-1.00
2019-02-24T01:35:48.673Z,-0.90
2019-02-24T01:38:30.940Z,-1.00
2019-02-24T01:41:13.480Z,-1.10
2019-02-24T01:43:55.223Z,-1.10
2019-02-24T01:46:37.752Z,-1.10
2019-02-24T01:49:20.716Z,-1.20
2019-02-24T01:52:02.365Z,-1.20
2019-02-24T01:54:44.565Z,-1.30
2019-02-24T01:57:27.004Z,-1.20
2019-02-24T02:00:09.345Z,-1.10
2019-02-24T02:02:51.817Z,-1.10
2019-02-24T02:05:34.666Z,-1.30
2019-02-24T02:08:17.358Z,-1.20
2019-02-24T02:11:00.268Z,-1.30
2019-02-24T02:13:42.879Z,-1.30
2019-02-24T02:16:24.876Z,-1.30
2019-02-24T02:19:07.833Z,-1.30
2019-02-24T02:21:49.942Z,-1.30
2019-02-24T02:24:32.717Z,-1.30
2019-02-24T02:27:15.552Z,-1.30
2019-02-24T02:29:58.173Z,-1.40
2019-02-24T02:32:40.712Z,-1.30
2019-02-24T02:35:22.771Z,-1.30
2019-02-24T02:38:05.504Z,-1.30
2019-02-24T02:40:48.120Z,-1.30
2019-02-24T02:43:30.460Z,-1.30
2019-02-24T02:48:53.864Z,-1.10
2019-02-24T02:51:35.816Z,-1.00
2019-02-24T02:54:17.761Z,-1.10
2019-02-24T02:57:00.403Z,-1.10
2019-02-24T02:59:42.753Z,-1.10
2019-02-24T03:02:25.068Z,-1.10
2019-02-24T03:05:06.872Z,-1.00
2019-02-24T03:07:55.781Z,-0.90
2019-02-24T03:10:37.875Z,-0.90
2019-02-24T03:13:20.170Z,-0.90
2019-02-24T03:16:02.608Z,-0.90
2019-02-24T03:18:43.078Z,-0.70
2019-02-24T03:21:32.483Z,-0.70
2019-02-24T03:24:14.358Z,-0.70
2019-02-24T03:26:56.973Z,-0.60
2019-02-24T03:29:39.475Z,-0.60
2019-02-24T03:32:21.914Z,-0.60
2019-02-24T03:35:04.312Z,-0.50
2019-02-24T03:37:46.158Z,-0.50
2019-02-24T03:40:28.218Z,-0.50
2019-02-24T03:43:10.936Z,-0.40
2019-02-24T03:45:53.462Z,-0.40
2019-02-24T03:48:36.002Z,-0.50
2019-02-24T03:51:18.922Z,-0.50
2019-02-24T03:54:00.674Z,-0.60
2019-02-24T03:56:43.197Z,-0.60
2019-02-24T03:59:25.897Z,-0.50
2019-02-24T04:02:08.436Z,-0.50
2019-02-24T04:04:51.288Z,-0.40
2019-02-24T04:07:33.855Z,-0.30
2019-02-24T04:10:16.884Z,-0.30
2019-02-24T04:12:58.881Z,-0.20
2019-02-24T04:15:40.840Z,-0.30
2019-02-24T04:18:23.792Z,-0.30
2019-02-24T04:21:05.926Z,-0.30
2019-02-24T04:23:48.010Z,-0.30
2019-02-24T04:26:30.112Z,-0.30
2019-02-24T04:29:12.025Z,-0.40
2019-02-24T04:31:54.334Z,-0.40
2019-02-24T04:34:36.880Z,-0.40
2019-02-24T04:37:19.726Z,-0.30
2019-02-24T04:40:01.782Z,-0.30
2019-02-24T04:42:45.281Z,-0.30
2019-02-24T04:45:27.420Z,-0.40
2019-02-24T04:48:10.050Z,-0.30
2019-02-24T04:50:50.559Z,-0.20
2019-02-24T04:53:40.152Z,-0.20
2019-02-24T04:56:23.564Z,-0.20
2019-02-24T04:59:06.302Z,-0.10
2019-02-24T05:01:48.306Z,0.00
2019-02-24T05:04:30.813Z,0.30
2019-02-24T05:07:14.024Z,0.30
2019-02-24T05:09:55.970Z,0.20
2019-02-24T05:12:38.696Z,0.00
2019-02-24T05:15:20.540Z,-0.20
2019-02-24T05:18:03.654Z,-0.10
2019-02-24T05:20:46.261Z,-0.20
2019-02-24T05:23:27.027Z,-0.30
2019-02-24T05:26:16.695Z,-0.20
2019-02-24T05:28:59.274Z,0.10
2019-02-24T05:31:40.986Z,0.20
2019-02-24T05:34:22.711Z,0.00
2019-02-24T05:37:06.391Z,-0.20
2019-02-24T05:39:49.224Z,-0.40
2019-02-24T05:42:31.750Z,-0.40
2019-02-24T05:45:13.993Z,-0.50
2019-02-24T05:47:56.449Z,-0.50
2019-02-24T05:50:38.668Z,-0.30
2019-02-24T05:53:20.521Z,-0.20
2019-02-24T05:56:03.104Z,-0.40
2019-02-24T05:58:44.772Z,-0.50
2019-02-24T06:01:26.601Z,-0.40
2019-02-24T06:04:09.741Z,-0.50
2019-02-24T06:06:50.353Z,-0.50
2019-02-24T06:09:39.684Z,-0.40
2019-02-24T06:12:22.580Z,-0.40
2019-02-24T06:15:04.381Z,-0.30
2019-02-24T06:17:46.700Z,-0.30
2019-02-24T06:20:28.709Z,-0.30
2019-02-24T06:23:09.062Z,-0.30
2019-02-24T06:25:58.716Z,0.00
2019-02-24T06:28:41.327Z,0.20
2019-02-24T06:31:23.441Z,0.10
2019-02-24T06:34:06.414Z,0.00
2019-02-24T06:36:48.487Z,-0.10
2019-02-24T06:39:31.269Z,0.00
2019-02-24T06:42:13.160Z,0.00
2019-02-24T06:44:55.649Z,0.00
2019-02-24T06:47:37.686Z,0.00
2019-02-24T06:50:19.975Z,0.00
2019-02-24T06:53:01.863Z,0.10
2019-02-24T06:55:44.005Z,0.20
2019-02-24T06:58:26.262Z,0.30
2019-02-24T07:01:08.647Z,0.40
2019-02-24T07:03:51.035Z,0.50
2019-02-24T07:06:33.305Z,0.40
2019-02-24T07:09:16.699Z,0.60
2019-02-24T07:11:58.760Z,0.70
2019-02-24T07:14:41.269Z,0.70
2019-02-24T07:17:23.043Z,0.70
2019-02-24T07:20:05.378Z,0.90
2019-02-24T07:22:47.202Z,1.10
2019-02-24T07:25:28.844Z,1.00
2019-02-24T07:28:10.878Z,1.10
2019-02-24T07:30:53.960Z,1.00
2019-02-24T07:33:35.720Z,0.90
2019-02-24T07:36:17.968Z,1.00
2019-02-24T07:39:00.011Z,1.00
2019-02-24T07:41:44.433Z,1.10
2019-02-24T07:44:26.188Z,1.20
2019-02-24T07:47:09.247Z,1.20
2019-02-24T07:49:51.966Z,1.30
2019-02-24T07:52:34.569Z,1.30
2019-02-24T07:55:17.036Z,1.30
2019-02-24T07:57:57.451Z,1.50
2019-02-24T08:00:47.059Z,1.60
2019-02-24T08:03:30.386Z,1.70
2019-02-24T08:06:12.116Z,1.60
2019-02-24T08:08:54.426Z,1.60
2019-02-24T08:11:36.234Z,1.60
2019-02-24T08:14:19.337Z,1.70
2019-02-24T08:17:01.543Z,1.60
2019-02-24T08:19:43.912Z,1.80
2019-02-24T08:22:26.031Z,1.90
2019-02-24T08:25:08.324Z,1.90
2019-02-24T08:27:50.869Z,2.00
2019-02-24T08:30:41.252Z,2.10
2019-02-24T08:33:17.380Z,2.30
2019-02-24T08:35:59.208Z,2.40
2019-02-24T08:38:41.240Z,2.60
2019-02-24T08:41:23.606Z,2.70
2019-02-24T08:44:06.993Z,2.70
2019-02-24T08:46:50.515Z,2.70
2019-02-24T08:49:33.165Z,2.70
2019-02-24T08:52:15.769Z,2.60
2019-02-24T08:54:58.422Z,2.80
2019-02-24T08:57:40.976Z,2.80
2019-02-24T09:00:23.846Z,3.00
2019-02-24T09:03:05.940Z,3.10
2019-02-24T09:05:48.661Z,3.20
2019-02-24T09:08:31.178Z,3.30
2019-02-24T09:11:11.773Z,3.60
2019-02-24T09:14:01.688Z,3.80
2019-02-24T09:16:44.352Z,3.90
2019-02-24T09:19:26.579Z,4.10
2019-02-24T09:22:09.318Z,4.20
2019-02-24T09:24:51.624Z,4.30
2019-02-24T09:27:33.427Z,4.40
2019-02-24T09:30:16.180Z,4.70
2019-02-24T09:33:22.484Z,5.00
2019-02-24T09:36:05.133Z,5.00
2019-02-24T09:38:47.044Z,5.30
2019-02-24T09:41:29.316Z,5.30
2019-02-24T09:44:11.788Z,5.40
2019-02-24T09:46:54.510Z,5.30
2019-02-24T09:49:36.457Z,5.50
2019-02-24T09:52:18.962Z,5.60
2019-02-24T09:55:01.047Z,5.60
2019-02-24T09:57:44.265Z,5.70
2019-02-24T10:00:25.997Z,5.80
2019-02-24T10:03:08.713Z,6.10
2019-02-24T10:05:50.502Z,6.40
2019-02-24T10:08:33.242Z,6.50
2019-02-24T10:11:15.764Z,6.50
2019-02-24T10:13:57.970Z,6.90
2019-02-24T10:16:39.978Z,7.20
2019-02-24T10:19:22.385Z,7.30
2019-02-24T10:22:04.813Z,7.50
2019-02-24T10:24:47.231Z,7.70
2019-02-24T10:27:29.113Z,7.90
2019-02-24T10:30:11.596Z,7.90
2019-02-24T10:32:53.734Z,7.90
2019-02-24T10:35:36.350Z,8.10
2019-02-24T10:38:18.670Z,7.80
2019-02-24T10:41:01.313Z,8.00
2019-02-24T10:43:43.378Z,8.20
2019-02-24T10:46:25.633Z,8.30
2019-02-24T10:49:07.636Z,8.50
2019-02-24T10:51:49.389Z,8.70
2019-02-24T10:54:31.381Z,8.60
2019-02-24T10:57:13.128Z,8.60
2019-02-24T10:59:55.054Z,8.80
2019-02-24T11:02:36.928Z,8.90
2019-02-24T11:05:19.639Z,8.80
2019-02-24T11:08:01.397Z,8.80
2019-02-24T11:10:42.381Z,8.70
2019-02-24T11:13:31.681Z,9.00
2019-02-24T11:16:14.536Z,9.20
2019-02-24T11:18:56.501Z,9.20
2019-02-24T11:21:38.589Z,9.30
2019-02-24T11:24:21.445Z,9.40
2019-02-24T11:27:03.663Z,9.30
2019-02-24T11:29:46.308Z,9.30
2019-02-24T11:32:28.725Z,9.40
2019-02-24T11:35:10.440Z,9.50
2019-02-24T11:37:53.852Z,9.60
2019-02-24T11:40:36.293Z,9.70
2019-02-24T11:43:18.923Z,9.80
2019-02-24T11:46:01.429Z,9.90
2019-02-24T11:48:43.820Z,9.90
2019-02-24T11:51:25.443Z,10.00
2019-02-24T11:54:08.364Z,9.80
2019-02-24T11:56:50.580Z,9.90
2019-02-24T11:59:33.277Z,9.90
2019-02-24T12:02:15.768Z,10.00
2019-02-24T12:04:57.985Z,9.90
2019-02-24T12:07:40.457Z,9.60
2019-02-24T12:10:22.720Z,9.60
2019-02-24T12:13:04.612Z,9.60
2019-02-24T12:15:47.643Z,9.60
2019-02-24T12:18:29.428Z,9.70
2019-02-24T12:21:11.948Z,9.90
2019-02-24T12:23:54.821Z,9.90
2019-02-24T12:26:37.614Z,9.70
2019-02-24T12:29:19.273Z,9.80
2019-02-24T12:32:01.832Z,10.10
2019-02-24T12:34:44.492Z,10.10
2019-02-24T12:37:27.276Z,10.30
2019-02-24T12:40:09.819Z,10.40
2019-02-24T12:42:51.845Z,10.30
2019-02-24T12:45:34.325Z,10.40
2019-02-24T12:48:18.045Z,10.30
2019-02-24T12:51:00.140Z,10.50
2019-02-24T12:53:42.020Z,10.70
2019-02-24T12:56:24.762Z,10.50
2019-02-24T12:59:07.596Z,10.40
2019-02-24T13:01:50.085Z,10.70
2019-02-24T13:04:32.887Z,10.90
2019-02-24T13:07:14.716Z,10.90
2019-02-24T13:09:57.457Z,11.00
2019-02-24T13:12:39.606Z,11.10
2019-02-24T13:15:22.350Z,11.20
2019-02-24T13:18:04.381Z,11.50
2019-02-24T13:20:47.077Z,11.50
2019-02-24T13:23:29.112Z,11.50
2019-02-24T13:26:11.642Z,11.60
2019-02-24T13:28:52.146Z,11.60
2019-02-24T13:34:42.770Z,11.70
2019-02-24T13:37:24.669Z,11.80
2019-02-24T13:40:07.205Z,11.90
2019-02-24T13:42:48.917Z,11.70
2019-02-24T13:45:29.539Z,11.50
2019-02-24T13:48:18.956Z,11.20
2019-02-24T13:51:01.180Z,11.20
2019-02-24T13:53:43.591Z,11.30
2019-02-24T13:56:26.362Z,11.30
2019-02-24T13:59:08.748Z,11.20
2019-02-24T14:01:51.608Z,11.10
2019-02-24T14:04:34.028Z,11.10
2019-02-24T14:07:16.499Z,11.10
2019-02-24T14:09:58.220Z,11.20
2019-02-24T14:12:41.204Z,11.20
2019-02-24T14:15:23.372Z,11.10
2019-02-24T14:18:06.016Z,11.10
2019-02-24T14:20:49.417Z,11.20
2019-02-24T14:23:29.844Z,11.20
2019-02-24T14:29:26.956Z,11.20
2019-02-24T14:32:09.425Z,11.10
2019-02-24T14:34:51.914Z,11.10
2019-02-24T14:37:33.828Z,11.20
2019-02-24T14:40:17.084Z,11.20
2019-02-24T14:42:58.886Z,11.20
2019-02-24T14:45:39.704Z,11.20
2019-02-24T14:51:36.172Z,11.20
2019-02-24T14:54:18.589Z,11.20
2019-02-24T14:57:00.924Z,11.10
2019-02-24T14:59:43.382Z,11.10
2019-02-24T15:02:25.477Z,11.10
2019-02-24T15:05:11.460Z,11.10
2019-02-24T15:07:53.912Z,11.00
2019-02-24T15:10:36.508Z,11.00
2019-02-24T15:13:18.485Z,11.10
2019-02-24T15:16:01.172Z,11.10
2019-02-24T15:18:43.139Z,11.10
2019-02-24T15:21:25.704Z,11.10
2019-02-24T15:24:09.028Z,11.10
2019-02-24T15:26:51.643Z,11.00
2019-02-24T15:29:33.516Z,10.90
2019-02-24T15:32:15.966Z,10.80
2019-02-24T15:34:58.447Z,10.70
2019-02-24T15:37:40.400Z,10.70
2019-02-24T15:40:22.840Z,10.70
2019-02-24T15:43:05.452Z,10.70
2019-02-24T15:45:48.340Z,10.70
2019-02-24T15:48:30.884Z,10.60
2019-02-24T15:51:11.513Z,10.60
2019-02-24T15:54:01.240Z,10.60
2019-02-24T15:56:43.500Z,10.60
2019-02-24T15:59:26.313Z,10.50
2019-02-24T16:02:08.733Z,10.40
2019-02-24T16:04:51.190Z,10.30
2019-02-24T16:07:33.456Z,10.20
2019-02-24T16:10:16.379Z,10.10
2019-02-24T16:12:56.872Z,10.00
2019-02-24T16:18:53.085Z,9.80
2019-02-24T16:21:36.051Z,9.70
2019-02-24T16:24:18.360Z,9.60
2019-02-24T16:27:01.272Z,9.50
2019-02-24T16:29:43.903Z,9.40
2019-02-24T16:32:26.500Z,9.30
2019-02-24T16:35:08.923Z,9.10
2019-02-24T16:37:51.709Z,9.00
2019-02-24T16:40:34.489Z,8.90
2019-02-24T16:43:17.264Z,8.70
2019-02-24T16:45:59.757Z,8.50
2019-02-24T16:48:43.337Z,8.30
2019-02-24T16:51:26.073Z,8.00
2019-02-24T16:54:08.489Z,7.80
2019-02-24T16:56:51.332Z,7.60
2019-02-24T16:59:33.615Z,7.40
2019-02-24T17:02:22.564Z,7.20
2019-02-24T17:04:59.872Z,7.10
2019-02-24T17:07:42.540Z,6.90
2019-02-24T17:10:25.297Z,6.90
2019-02-24T17:13:08.145Z,6.90
2019-02-24T17:15:50.526Z,6.90
2019-02-24T17:18:33.157Z,6.90
2019-02-24T17:21:15.730Z,6.90
2019-02-24T17:23:56.795Z,6.80
2019-02-24T17:26:47.792Z,6.60
2019-02-24T17:29:29.621Z,6.50
2019-02-24T17:32:12.197Z,6.50
2019-02-24T17:34:54.221Z,6.40
2019-02-24T17:37:37.669Z,6.30
2019-02-24T17:40:20.691Z,6.20
2019-02-24T17:43:03.415Z,6.20
2019-02-24T17:45:45.259Z,6.00
2019-02-24T17:51:26.919Z,5.80
2019-02-24T17:54:07.273Z,5.80
2019-02-24T17:56:50.585Z,5.80
2019-02-24T17:59:40.218Z,5.90
2019-02-24T18:02:16.923Z,5.90
2019-02-24T18:04:58.874Z,5.80
2019-02-24T18:07:40.797Z,5.60
2019-02-24T18:10:22.039Z,5.40
2019-02-24T18:13:11.624Z,5.20
2019-02-24T18:15:53.873Z,5.20
2019-02-24T18:18:35.958Z,5.00
2019-02-24T18:21:19.446Z,4.80
2019-02-24T18:24:02.177Z,4.70
2019-02-24T18:26:43.079Z,4.50
2019-02-24T18:29:32.456Z,4.60
2019-02-24T18:32:15.078Z,4.80
2019-02-24T18:34:57.521Z,4.80
2019-02-24T18:37:39.874Z,4.70
2019-02-24T18:40:22.499Z,4.70
2019-02-24T18:43:04.876Z,4.60
2019-02-24T18:45:47.525Z,4.40
2019-02-24T18:48:29.858Z,4.30
2019-02-24T18:51:12.231Z,4.40
2019-02-24T18:53:54.942Z,4.40
2019-02-24T18:56:37.232Z,4.30
2019-02-24T18:59:19.525Z,4.10
2019-02-24T19:02:02.088Z,3.90
2019-02-24T19:04:44.600Z,3.80
2019-02-24T19:07:27.772Z,3.60
2019-02-24T19:10:10.923Z,3.50
2019-02-24T19:12:52.748Z,3.40
2019-02-24T19:15:34.903Z,3.50
2019-02-24T19:18:17.876Z,3.50
2019-02-24T19:20:59.780Z,3.30
2019-02-24T19:23:41.636Z,3.20
2019-02-24T19:26:22.279Z,3.00
2019-02-24T19:29:04.063Z,3.20
2019-02-24T19:31:45.920Z,3.30
2019-02-24T19:34:28.428Z,3.40
2019-02-24T19:37:10.876Z,3.30
2019-02-24T19:39:54.461Z,3.10
2019-02-24T19:42:36.434Z,3.00
2019-02-24T19:45:19.317Z,3.00
2019-02-24T19:48:02.304Z,3.10
2019-02-24T19:50:44.585Z,3.20
2019-02-24T19:53:27.325Z,3.30
2019-02-24T19:56:09.599Z,3.20
2019-02-24T19:58:51.488Z,3.10
2019-02-24T20:01:33.464Z,3.10
2019-02-24T20:04:16.457Z,3.00
2019-02-24T20:06:59.385Z,2.80
2019-02-24T20:09:42.486Z,2.80
2019-02-24T20:12:25.144Z,2.90
2019-02-24T20:15:07.953Z,2.90
2019-02-24T20:17:50.248Z,2.90
2019-02-24T20:20:32.342Z,3.20
2019-02-24T20:23:14.096Z,3.40
2019-02-24T20:25:56.848Z,3.60
2019-02-24T20:31:29.871Z,3.40
2019-02-24T20:34:11.626Z,3.50
2019-02-24T20:36:54.002Z,3.60
2019-02-24T20:39:36.148Z,3.40
2019-02-24T20:42:18.427Z,3.20
2019-02-24T20:44:58.903Z,3.30
2019-02-24T20:50:55.626Z,3.10
2019-02-24T20:53:37.831Z,3.00
2019-02-24T20:56:20.709Z,2.80
2019-02-24T20:59:02.632Z,2.60
2019-02-24T21:01:45.442Z,2.50
2019-02-24T21:04:27.654Z,2.40
2019-02-24T21:07:09.381Z,2.30
2019-02-24T21:09:52.339Z,2.20
2019-02-24T21:12:34.792Z,2.10
2019-02-24T21:15:16.955Z,2.00
2019-02-24T21:17:58.647Z,2.00
2019-02-24T21:20:40.881Z,1.90
2019-02-24T21:23:22.821Z,1.90
2019-02-24T21:26:04.737Z,1.90
2019-02-24T21:28:46.379Z,1.80
2019-02-24T21:31:28.189Z,1.80
2019-02-24T21:36:51.712Z,1.90
2019-02-24T21:39:34.600Z,2.20
2019-02-24T21:42:17.011Z,2.30
2019-02-24T21:44:59.616Z,2.30
2019-02-24T21:47:42.354Z,2.10
2019-02-24T21:50:24.533Z,2.00
2019-02-24T21:53:06.446Z,1.90
2019-02-24T21:55:49.035Z,1.90
2019-02-24T21:58:31.777Z,2.10
2019-02-24T22:01:13.837Z,2.30
2019-02-24T22:03:56.688Z,2.50
2019-02-24T22:06:38.441Z,2.50
2019-02-24T22:09:21.286Z,2.50
2019-02-24T22:12:03.791Z,2.60
2019-02-24T22:14:45.901Z,2.60
2019-02-24T22:17:28.048Z,2.50
2019-02-24T22:20:10.097Z,2.40
2019-02-24T22:22:52.052Z,2.50
2019-02-24T22:25:34.725Z,2.50
2019-02-24T22:28:17.235Z,2.40
2019-02-24T22:31:00.225Z,2.40
2019-02-24T22:33:42.189Z,2.20
2019-02-24T22:36:24.792Z,2.10
2019-02-24T22:39:07.332Z,2.10
2019-02-24T22:41:50.593Z,2.30
2019-02-24T22:44:31.373Z,2.40
2019-02-24T22:47:20.833Z,2.30
2019-02-24T22:50:03.477Z,2.40
2019-02-24T22:52:46.098Z,2.40
2019-02-24T22:55:28.224Z,2.40
2019-02-24T22:58:11.114Z,2.40
2019-02-24T23:01:12.251Z,2.20
2019-02-24T23:03:55.792Z,2.00
2019-02-24T23:06:37.760Z,1.80
2019-02-24T23:09:20.176Z,1.60
2019-02-24T23:12:00.572Z,1.50
2019-02-24T23:14:51.129Z,1.30
2019-02-24T23:17:32.938Z,1.50
2019-02-24T23:20:14.968Z,1.60
2019-02-24T23:22:57.291Z,1.70
2019-02-24T23:25:37.980Z,1.80
2019-02-24T23:28:27.633Z,1.70
2019-02-24T23:31:08.132Z,1.60
2019-02-24T23:33:57.756Z,1.50
2019-02-24T23:36:40.045Z,1.30
2019-02-24T23:39:21.928Z,1.20
2019-02-24T23:42:03.917Z,1.20
2019-02-24T23:44:46.236Z,1.30
2019-02-24T23:47:28.659Z,1.30
2019-02-24T23:50:11.195Z,1.30
2019-02-24T23:52:54.005Z,1.20
2019-02-24T23:55:36.468Z,1.20
2019-02-24T23:58:20.378Z,1.10
